sensor_id;sensor_type;location;lat;lon;timestamp;temperature;humidity
17715;DHT22;8977;50.902;4.314;2022-08-03T00:00:59;25.80;99.90
17715;DHT22;8977;50.902;4.314;2022-08-03T00:03:26;25.80;99.90
17715;DHT22;8977;50.902;4.314;2022-08-03T00:05:53;25.80;99.90
17715;DHT22;8977;50.902;4.314;2022-08-03T00:08:20;25.80;99.90
17715;DHT22;8977;50.902;4.314;2022-08-03T00:10:47;25.70;99.90
17715;DHT22;8977;50.902;4.314;2022-08-03T00:13:14;25.80;99.90
17715;DHT22;8977;50.902;4.314;2022-08-03T00:15:42;25.70;99.90
17715;DHT22;8977;50.902;4.314;2022-08-03T00:18:09;25.70;99.90
17715;DHT22;8977;50.902;4.314;2022-08-03T00:20:36;25.70;99.90
17715;DHT22;8977;50.902;4.314;2022-08-03T00:23:04;25.70;99.90
17715;DHT22;8977;50.902;4.314;2022-08-03T00:25:32;25.70;99.90
17715;DHT22;8977;50.902;4.314;2022-08-03T00:28:01;25.70;99.90
17715;DHT22;8977;50.902;4.314;2022-08-03T00:30:28;25.60;99.90
17715;DHT22;8977;50.902;4.314;2022-08-03T00:32:57;25.60;99.90
17715;DHT22;8977;50.902;4.314;2022-08-03T00:35:24;25.60;99.90
17715;DHT22;8977;50.902;4.314;2022-08-03T00:37:51;25.60;99.90
17715;DHT22;8977;50.902;4.314;2022-08-03T00:40:18;25.60;99.90
17715;DHT22;8977;50.902;4.314;2022-08-03T00:42:51;25.60;99.90
17715;DHT22;8977;50.902;4.314;2022-08-03T00:45:20;25.60;99.90
17715;DHT22;8977;50.902;4.314;2022-08-03T00:47:47;25.60;99.90
17715;DHT22;8977;50.902;4.314;2022-08-03T00:50:16;25.60;99.90
17715;DHT22;8977;50.902;4.314;2022-08-03T00:52:44;25.60;99.90
17715;DHT22;8977;50.902;4.314;2022-08-03T00:55:11;25.60;99.90
17715;DHT22;8977;50.902;4.314;2022-08-03T00:57:38;25.60;99.90
17715;DHT22;8977;50.902;4.314;2022-08-03T01:00:06;25.50;99.90
17715;DHT22;8977;50.902;4.314;2022-08-03T01:02:34;25.50;99.90
17715;DHT22;8977;50.902;4.314;2022-08-03T01:05:01;25.50;99.90
17715;DHT22;8977;50.902;4.314;2022-08-03T01:07:45;25.50;99.90
17715;DHT22;8977;50.902;4.314;2022-08-03T01:10:20;25.50;99.90
17715;DHT22;8977;50.902;4.314;2022-08-03T01:12:56;25.40;99.90
17715;DHT22;8977;50.902;4.314;2022-08-03T01:15:30;25.40;99.90
17715;DHT22;8977;50.902;4.314;2022-08-03T01:18:07;25.40;99.90
17715;DHT22;8977;50.902;4.314;2022-08-03T01:20:38;25.50;99.90
17715;DHT22;8977;50.902;4.314;2022-08-03T01:23:23;25.50;99.90
17715;DHT22;8977;50.902;4.314;2022-08-03T01:26:06;25.40;99.90
17715;DHT22;8977;50.902;4.314;2022-08-03T01:28:48;25.40;99.90
17715;DHT22;8977;50.902;4.314;2022-08-03T01:31:26;25.40;99.90
17715;DHT22;8977;50.902;4.314;2022-08-03T01:33:58;25.40;99.90
17715;DHT22;8977;50.902;4.314;2022-08-03T01:36:29;25.40;99.90
17715;DHT22;8977;50.902;4.314;2022-08-03T01:39:00;25.30;99.90
17715;DHT22;8977;50.902;4.314;2022-08-03T01:41:30;25.30;99.90
17715;DHT22;8977;50.902;4.314;2022-08-03T01:44:00;25.30;99.90
17715;DHT22;8977;50.902;4.314;2022-08-03T01:46:31;25.30;99.90
17715;DHT22;8977;50.902;4.314;2022-08-03T01:48:59;25.30;99.90
17715;DHT22;8977;50.902;4.314;2022-08-03T01:51:27;25.20;99.90
17715;DHT22;8977;50.902;4.314;2022-08-03T01:53:54;25.20;99.90
17715;DHT22;8977;50.902;4.314;2022-08-03T01:56:23;25.20;99.90
17715;DHT22;8977;50.902;4.314;2022-08-03T01:58:52;25.20;99.90
17715;DHT22;8977;50.902;4.314;2022-08-03T02:01:20;25.20;99.90
17715;DHT22;8977;50.902;4.314;2022-08-03T02:03:49;25.20;99.90
17715;DHT22;8977;50.902;4.314;2022-08-03T02:06:19;25.20;99.90
17715;DHT22;8977;50.902;4.314;2022-08-03T02:08:47;25.20;99.90
17715;DHT22;8977;50.902;4.314;2022-08-03T02:11:15;25.20;99.90
17715;DHT22;8977;50.902;4.314;2022-08-03T02:13:44;25.10;99.90
17715;DHT22;8977;50.902;4.314;2022-08-03T02:16:12;25.10;99.90
17715;DHT22;8977;50.902;4.314;2022-08-03T02:18:40;25.10;99.90
17715;DHT22;8977;50.902;4.314;2022-08-03T02:21:09;25.00;99.90
17715;DHT22;8977;50.902;4.314;2022-08-03T02:23:37;25.00;99.90
17715;DHT22;8977;50.902;4.314;2022-08-03T02:26:09;25.00;99.90
17715;DHT22;8977;50.902;4.314;2022-08-03T02:28:40;25.00;99.90
17715;DHT22;8977;50.902;4.314;2022-08-03T02:31:12;25.00;99.90
17715;DHT22;8977;50.902;4.314;2022-08-03T02:33:43;25.00;99.90
17715;DHT22;8977;50.902;4.314;2022-08-03T02:36:13;24.90;99.90
17715;DHT22;8977;50.902;4.314;2022-08-03T02:38:42;24.90;99.90
17715;DHT22;8977;50.902;4.314;2022-08-03T02:41:14;24.90;99.90
17715;DHT22;8977;50.902;4.314;2022-08-03T02:43:45;24.90;99.90
17715;DHT22;8977;50.902;4.314;2022-08-03T02:46:17;24.90;99.90
17715;DHT22;8977;50.902;4.314;2022-08-03T02:48:45;24.80;99.90
17715;DHT22;8977;50.902;4.314;2022-08-03T02:51:15;24.80;99.90
17715;DHT22;8977;50.902;4.314;2022-08-03T02:53:44;24.80;99.90
17715;DHT22;8977;50.902;4.314;2022-08-03T02:56:11;24.80;99.90
17715;DHT22;8977;50.902;4.314;2022-08-03T02:58:42;24.80;99.90
17715;DHT22;8977;50.902;4.314;2022-08-03T03:01:09;24.80;99.90
17715;DHT22;8977;50.902;4.314;2022-08-03T03:03:37;24.80;99.90
17715;DHT22;8977;50.902;4.314;2022-08-03T03:06:06;24.70;99.90
17715;DHT22;8977;50.902;4.314;2022-08-03T03:08:36;24.70;99.90
17715;DHT22;8977;50.902;4.314;2022-08-03T03:11:03;24.70;99.90
17715;DHT22;8977;50.902;4.314;2022-08-03T03:13:31;24.70;99.90
17715;DHT22;8977;50.902;4.314;2022-08-03T03:16:00;24.70;99.90
17715;DHT22;8977;50.902;4.314;2022-08-03T03:18:30;24.70;99.90
17715;DHT22;8977;50.902;4.314;2022-08-03T03:20:58;24.70;99.90
17715;DHT22;8977;50.902;4.314;2022-08-03T03:23:27;24.70;99.90
17715;DHT22;8977;50.902;4.314;2022-08-03T03:25:56;24.60;99.90
17715;DHT22;8977;50.902;4.314;2022-08-03T03:28:24;24.70;99.90
17715;DHT22;8977;50.902;4.314;2022-08-03T03:30:51;24.70;99.90
17715;DHT22;8977;50.902;4.314;2022-08-03T03:33:18;24.60;99.90
17715;DHT22;8977;50.902;4.314;2022-08-03T03:35:45;24.60;99.90
17715;DHT22;8977;50.902;4.314;2022-08-03T03:38:13;24.60;99.90
17715;DHT22;8977;50.902;4.314;2022-08-03T03:40:40;24.60;99.90
17715;DHT22;8977;50.902;4.314;2022-08-03T03:43:09;24.60;99.90
17715;DHT22;8977;50.902;4.314;2022-08-03T03:45:37;24.50;99.90
17715;DHT22;8977;50.902;4.314;2022-08-03T03:48:06;24.50;99.90
17715;DHT22;8977;50.902;4.314;2022-08-03T03:50:35;24.50;99.90
17715;DHT22;8977;50.902;4.314;2022-08-03T03:53:08;24.50;99.90
17715;DHT22;8977;50.902;4.314;2022-08-03T03:55:35;24.50;99.90
17715;DHT22;8977;50.902;4.314;2022-08-03T03:58:02;24.50;99.90
17715;DHT22;8977;50.902;4.314;2022-08-03T04:00:31;24.50;99.90
17715;DHT22;8977;50.902;4.314;2022-08-03T04:02:58;24.50;99.90
17715;DHT22;8977;50.902;4.314;2022-08-03T04:05:24;24.50;99.90
17715;DHT22;8977;50.902;4.314;2022-08-03T04:08:11;24.50;99.90
17715;DHT22;8977;50.902;4.314;2022-08-03T04:11:04;24.50;99.90
17715;DHT22;8977;50.902;4.314;2022-08-03T04:13:36;24.40;99.90
17715;DHT22;8977;50.902;4.314;2022-08-03T04:16:07;24.40;99.90
17715;DHT22;8977;50.902;4.314;2022-08-03T04:18:37;24.40;99.90
17715;DHT22;8977;50.902;4.314;2022-08-03T04:21:07;24.40;99.90
17715;DHT22;8977;50.902;4.314;2022-08-03T04:23:40;24.40;99.90
17715;DHT22;8977;50.902;4.314;2022-08-03T04:26:10;24.40;99.90
17715;DHT22;8977;50.902;4.314;2022-08-03T04:28:40;24.40;99.90
17715;DHT22;8977;50.902;4.314;2022-08-03T04:31:11;24.40;99.90
17715;DHT22;8977;50.902;4.314;2022-08-03T04:33:40;24.30;99.90
17715;DHT22;8977;50.902;4.314;2022-08-03T04:36:11;24.30;99.90
17715;DHT22;8977;50.902;4.314;2022-08-03T04:38:45;24.30;99.90
17715;DHT22;8977;50.902;4.314;2022-08-03T04:41:17;24.30;99.90
17715;DHT22;8977;50.902;4.314;2022-08-03T04:43:46;24.30;99.90
17715;DHT22;8977;50.902;4.314;2022-08-03T04:46:16;24.30;99.90
17715;DHT22;8977;50.902;4.314;2022-08-03T04:48:44;24.30;99.90
17715;DHT22;8977;50.902;4.314;2022-08-03T04:51:12;24.30;99.90
17715;DHT22;8977;50.902;4.314;2022-08-03T04:53:39;24.30;99.90
17715;DHT22;8977;50.902;4.314;2022-08-03T04:56:07;24.30;99.90
17715;DHT22;8977;50.902;4.314;2022-08-03T04:58:34;24.30;99.90
17715;DHT22;8977;50.902;4.314;2022-08-03T05:01:01;24.20;99.90
17715;DHT22;8977;50.902;4.314;2022-08-03T05:03:29;24.30;99.90
17715;DHT22;8977;50.902;4.314;2022-08-03T05:05:57;24.20;99.90
17715;DHT22;8977;50.902;4.314;2022-08-03T05:08:24;24.20;99.90
17715;DHT22;8977;50.902;4.314;2022-08-03T05:10:50;24.20;99.90
17715;DHT22;8977;50.902;4.314;2022-08-03T05:13:17;24.30;99.90
17715;DHT22;8977;50.902;4.314;2022-08-03T05:15:44;24.30;99.90
17715;DHT22;8977;50.902;4.314;2022-08-03T05:18:11;24.30;99.90
17715;DHT22;8977;50.902;4.314;2022-08-03T05:20:39;24.30;99.90
17715;DHT22;8977;50.902;4.314;2022-08-03T05:23:06;24.30;99.90
17715;DHT22;8977;50.902;4.314;2022-08-03T05:25:33;24.30;99.90
17715;DHT22;8977;50.902;4.314;2022-08-03T05:28:00;24.30;99.90
17715;DHT22;8977;50.902;4.314;2022-08-03T05:30:27;24.30;99.90
17715;DHT22;8977;50.902;4.314;2022-08-03T05:32:53;24.40;99.90
17715;DHT22;8977;50.902;4.314;2022-08-03T05:35:21;24.40;99.90
17715;DHT22;8977;50.902;4.314;2022-08-03T05:37:51;24.40;99.90
17715;DHT22;8977;50.902;4.314;2022-08-03T05:40:18;24.40;99.90
17715;DHT22;8977;50.902;4.314;2022-08-03T05:42:45;24.40;99.90
17715;DHT22;8977;50.902;4.314;2022-08-03T05:45:12;24.50;99.90
17715;DHT22;8977;50.902;4.314;2022-08-03T05:47:40;24.40;99.90
17715;DHT22;8977;50.902;4.314;2022-08-03T05:50:09;24.50;99.90
17715;DHT22;8977;50.902;4.314;2022-08-03T05:52:36;24.50;99.90
17715;DHT22;8977;50.902;4.314;2022-08-03T05:55:05;24.50;99.90
17715;DHT22;8977;50.902;4.314;2022-08-03T05:57:32;24.50;99.90
17715;DHT22;8977;50.902;4.314;2022-08-03T06:00:00;24.50;99.90
17715;DHT22;8977;50.902;4.314;2022-08-03T06:02:28;24.50;99.90
17715;DHT22;8977;50.902;4.314;2022-08-03T06:04:55;24.50;99.90
17715;DHT22;8977;50.902;4.314;2022-08-03T06:07:22;24.50;99.90
17715;DHT22;8977;50.902;4.314;2022-08-03T06:09:49;24.60;99.90
17715;DHT22;8977;50.902;4.314;2022-08-03T06:12:17;24.60;99.90
17715;DHT22;8977;50.902;4.314;2022-08-03T06:14:44;24.60;99.90
17715;DHT22;8977;50.902;4.314;2022-08-03T06:17:11;24.60;99.90
17715;DHT22;8977;50.902;4.314;2022-08-03T06:19:38;24.70;99.90
17715;DHT22;8977;50.902;4.314;2022-08-03T06:22:05;24.70;99.90
17715;DHT22;8977;50.902;4.314;2022-08-03T06:24:32;24.70;99.90
17715;DHT22;8977;50.902;4.314;2022-08-03T06:26:59;24.70;99.90
17715;DHT22;8977;50.902;4.314;2022-08-03T06:29:27;24.70;99.90
17715;DHT22;8977;50.902;4.314;2022-08-03T06:31:54;24.70;99.90
17715;DHT22;8977;50.902;4.314;2022-08-03T06:34:20;24.80;99.90
17715;DHT22;8977;50.902;4.314;2022-08-03T06:36:47;24.80;99.90
17715;DHT22;8977;50.902;4.314;2022-08-03T06:39:15;24.80;99.90
17715;DHT22;8977;50.902;4.314;2022-08-03T06:41:43;24.80;99.90
17715;DHT22;8977;50.902;4.314;2022-08-03T06:44:10;24.80;99.90
17715;DHT22;8977;50.902;4.314;2022-08-03T06:46:39;24.80;99.90
17715;DHT22;8977;50.902;4.314;2022-08-03T06:49:06;24.90;99.90
17715;DHT22;8977;50.902;4.314;2022-08-03T06:51:33;24.80;99.90
17715;DHT22;8977;50.902;4.314;2022-08-03T06:54:00;24.80;99.90
17715;DHT22;8977;50.902;4.314;2022-08-03T06:56:27;24.90;99.90
17715;DHT22;8977;50.902;4.314;2022-08-03T06:58:54;24.90;99.90
17715;DHT22;8977;50.902;4.314;2022-08-03T07:01:21;24.90;99.90
17715;DHT22;8977;50.902;4.314;2022-08-03T07:03:49;25.00;99.90
17715;DHT22;8977;50.902;4.314;2022-08-03T07:06:16;25.00;99.90
17715;DHT22;8977;50.902;4.314;2022-08-03T07:08:43;25.10;99.90
17715;DHT22;8977;50.902;4.314;2022-08-03T07:11:09;25.00;99.90
17715;DHT22;8977;50.902;4.314;2022-08-03T07:13:36;25.00;99.90
17715;DHT22;8977;50.902;4.314;2022-08-03T07:16:05;25.00;99.90
17715;DHT22;8977;50.902;4.314;2022-08-03T07:18:32;25.00;99.90
17715;DHT22;8977;50.902;4.314;2022-08-03T07:21:00;25.00;99.90
17715;DHT22;8977;50.902;4.314;2022-08-03T07:23:27;25.10;99.90
17715;DHT22;8977;50.902;4.314;2022-08-03T07:25:54;25.10;99.90
17715;DHT22;8977;50.902;4.314;2022-08-03T07:28:21;25.10;99.90
17715;DHT22;8977;50.902;4.314;2022-08-03T07:30:48;25.20;99.90
17715;DHT22;8977;50.902;4.314;2022-08-03T07:33:15;25.30;99.90
17715;DHT22;8977;50.902;4.314;2022-08-03T07:35:42;25.40;99.90
17715;DHT22;8977;50.902;4.314;2022-08-03T07:38:10;25.30;99.90
17715;DHT22;8977;50.902;4.314;2022-08-03T07:40:37;25.20;99.90
17715;DHT22;8977;50.902;4.314;2022-08-03T07:43:03;25.20;99.90
17715;DHT22;8977;50.902;4.314;2022-08-03T07:45:31;25.20;99.90
17715;DHT22;8977;50.902;4.314;2022-08-03T07:47:58;25.30;99.90
17715;DHT22;8977;50.902;4.314;2022-08-03T07:50:24;25.40;99.90
17715;DHT22;8977;50.902;4.314;2022-08-03T07:52:52;25.40;99.90
17715;DHT22;8977;50.902;4.314;2022-08-03T07:55:23;25.40;99.90
17715;DHT22;8977;50.902;4.314;2022-08-03T07:58:01;25.50;99.90
17715;DHT22;8977;50.902;4.314;2022-08-03T08:00:28;25.50;99.90
17715;DHT22;8977;50.902;4.314;2022-08-03T08:02:55;25.40;99.90
17715;DHT22;8977;50.902;4.314;2022-08-03T08:05:22;25.50;99.90
17715;DHT22;8977;50.902;4.314;2022-08-03T08:07:48;25.60;99.90
17715;DHT22;8977;50.902;4.314;2022-08-03T08:10:15;25.60;99.90
17715;DHT22;8977;50.902;4.314;2022-08-03T08:12:43;25.60;99.90
17715;DHT22;8977;50.902;4.314;2022-08-03T08:15:10;25.60;99.90
17715;DHT22;8977;50.902;4.314;2022-08-03T08:17:42;25.80;99.90
17715;DHT22;8977;50.902;4.314;2022-08-03T08:20:10;25.80;99.90
17715;DHT22;8977;50.902;4.314;2022-08-03T08:22:37;25.80;99.90
17715;DHT22;8977;50.902;4.314;2022-08-03T08:25:04;25.80;99.90
17715;DHT22;8977;50.902;4.314;2022-08-03T08:27:31;25.90;99.90
17715;DHT22;8977;50.902;4.314;2022-08-03T08:30:03;25.90;99.90
17715;DHT22;8977;50.902;4.314;2022-08-03T08:32:30;26.00;99.90
17715;DHT22;8977;50.902;4.314;2022-08-03T08:34:57;26.00;99.90
17715;DHT22;8977;50.902;4.314;2022-08-03T08:37:24;26.00;99.90
17715;DHT22;8977;50.902;4.314;2022-08-03T08:39:51;26.10;99.90
17715;DHT22;8977;50.902;4.314;2022-08-03T08:42:18;26.20;99.90
17715;DHT22;8977;50.902;4.314;2022-08-03T08:44:44;26.20;99.90
17715;DHT22;8977;50.902;4.314;2022-08-03T08:47:13;26.20;99.90
17715;DHT22;8977;50.902;4.314;2022-08-03T08:49:41;26.30;99.90
17715;DHT22;8977;50.902;4.314;2022-08-03T08:52:08;26.50;99.90
17715;DHT22;8977;50.902;4.314;2022-08-03T08:54:35;26.40;99.90
17715;DHT22;8977;50.902;4.314;2022-08-03T08:57:06;26.50;99.90
17715;DHT22;8977;50.902;4.314;2022-08-03T08:59:35;26.50;99.90
17715;DHT22;8977;50.902;4.314;2022-08-03T09:02:02;26.60;99.90
17715;DHT22;8977;50.902;4.314;2022-08-03T09:04:31;26.60;99.90
17715;DHT22;8977;50.902;4.314;2022-08-03T09:06:58;26.60;99.90
17715;DHT22;8977;50.902;4.314;2022-08-03T09:09:27;26.60;99.90
17715;DHT22;8977;50.902;4.314;2022-08-03T09:11:54;26.60;99.90
17715;DHT22;8977;50.902;4.314;2022-08-03T09:14:21;26.80;99.90
17715;DHT22;8977;50.902;4.314;2022-08-03T09:16:58;26.80;99.90
17715;DHT22;8977;50.902;4.314;2022-08-03T09:19:26;26.90;99.60
17715;DHT22;8977;50.902;4.314;2022-08-03T09:22:08;26.90;99.60
17715;DHT22;8977;50.902;4.314;2022-08-03T09:24:38;27.00;99.40
17715;DHT22;8977;50.902;4.314;2022-08-03T09:27:06;27.00;99.50
17715;DHT22;8977;50.902;4.314;2022-08-03T09:29:37;27.00;99.40
17715;DHT22;8977;50.902;4.314;2022-08-03T09:32:04;27.00;99.50
17715;DHT22;8977;50.902;4.314;2022-08-03T09:34:31;27.10;99.30
17715;DHT22;8977;50.902;4.314;2022-08-03T09:36:58;27.10;99.30
17715;DHT22;8977;50.902;4.314;2022-08-03T09:39:27;27.10;99.80
17715;DHT22;8977;50.902;4.314;2022-08-03T09:42:06;27.20;99.60
17715;DHT22;8977;50.902;4.314;2022-08-03T09:44:34;27.20;99.20
17715;DHT22;8977;50.902;4.314;2022-08-03T09:47:01;27.20;99.20
17715;DHT22;8977;50.902;4.314;2022-08-03T09:49:28;27.30;99.40
17715;DHT22;8977;50.902;4.314;2022-08-03T09:51:55;27.40;98.80
17715;DHT22;8977;50.902;4.314;2022-08-03T09:54:27;27.40;99.00
17715;DHT22;8977;50.902;4.314;2022-08-03T09:56:54;27.50;99.10
17715;DHT22;8977;50.902;4.314;2022-08-03T09:59:25;27.50;99.20
17715;DHT22;8977;50.902;4.314;2022-08-03T10:01:53;27.50;99.20
17715;DHT22;8977;50.902;4.314;2022-08-03T10:04:20;27.60;98.90
17715;DHT22;8977;50.902;4.314;2022-08-03T10:07:04;27.60;99.20
17715;DHT22;8977;50.902;4.314;2022-08-03T10:09:35;27.70;98.90
17715;DHT22;8977;50.902;4.314;2022-08-03T10:12:10;27.70;99.10
17715;DHT22;8977;50.902;4.314;2022-08-03T10:14:38;27.80;98.90
17715;DHT22;8977;50.902;4.314;2022-08-03T10:17:06;27.80;98.80
17715;DHT22;8977;50.902;4.314;2022-08-03T10:19:34;27.80;98.80
17715;DHT22;8977;50.902;4.314;2022-08-03T10:22:04;27.80;98.80
17715;DHT22;8977;50.902;4.314;2022-08-03T10:24:35;27.80;99.20
17715;DHT22;8977;50.902;4.314;2022-08-03T10:27:04;27.80;98.90
17715;DHT22;8977;50.902;4.314;2022-08-03T10:29:36;27.90;99.10
17715;DHT22;8977;50.902;4.314;2022-08-03T10:32:06;28.10;98.70
17715;DHT22;8977;50.902;4.314;2022-08-03T10:34:39;28.10;98.50
17715;DHT22;8977;50.902;4.314;2022-08-03T10:37:09;28.20;98.70
17715;DHT22;8977;50.902;4.314;2022-08-03T10:39:39;28.20;98.60
17715;DHT22;8977;50.902;4.314;2022-08-03T10:42:19;28.20;98.40
17715;DHT22;8977;50.902;4.314;2022-08-03T10:44:50;28.20;98.40
17715;DHT22;8977;50.902;4.314;2022-08-03T10:47:18;28.20;98.80
17715;DHT22;8977;50.902;4.314;2022-08-03T10:49:47;28.30;98.90
17715;DHT22;8977;50.902;4.314;2022-08-03T10:52:14;28.30;98.90
17715;DHT22;8977;50.902;4.314;2022-08-03T10:54:43;28.40;98.80
17715;DHT22;8977;50.902;4.314;2022-08-03T10:57:49;28.40;98.90
17715;DHT22;8977;50.902;4.314;2022-08-03T11:00:19;28.50;98.40
17715;DHT22;8977;50.902;4.314;2022-08-03T11:03:08;28.50;98.70
17715;DHT22;8977;50.902;4.314;2022-08-03T11:05:38;28.60;98.40
17715;DHT22;8977;50.902;4.314;2022-08-03T11:08:30;28.60;98.10
17715;DHT22;8977;50.902;4.314;2022-08-03T11:11:02;28.70;97.80
17715;DHT22;8977;50.902;4.314;2022-08-03T11:13:57;28.70;98.00
17715;DHT22;8977;50.902;4.314;2022-08-03T11:16:26;28.70;98.00
17715;DHT22;8977;50.902;4.314;2022-08-03T11:18:57;28.80;97.80
17715;DHT22;8977;50.902;4.314;2022-08-03T11:21:53;28.80;97.60
17715;DHT22;8977;50.902;4.314;2022-08-03T11:24:58;28.80;97.70
17715;DHT22;8977;50.902;4.314;2022-08-03T11:27:27;28.80;97.80
17715;DHT22;8977;50.902;4.314;2022-08-03T11:29:56;28.80;97.60
17715;DHT22;8977;50.902;4.314;2022-08-03T11:32:51;28.90;97.70
17715;DHT22;8977;50.902;4.314;2022-08-03T11:35:19;29.00;97.80
17715;DHT22;8977;50.902;4.314;2022-08-03T11:38:06;29.00;97.50
17715;DHT22;8977;50.902;4.314;2022-08-03T11:40:35;29.10;97.20
17715;DHT22;8977;50.902;4.314;2022-08-03T11:43:05;29.10;97.20
17715;DHT22;8977;50.902;4.314;2022-08-03T11:45:33;29.10;97.20
17715;DHT22;8977;50.902;4.314;2022-08-03T11:48:11;29.20;97.20
17715;DHT22;8977;50.902;4.314;2022-08-03T11:50:39;29.20;97.30
17715;DHT22;8977;50.902;4.314;2022-08-03T11:53:07;29.30;96.90
17715;DHT22;8977;50.902;4.314;2022-08-03T11:55:39;29.30;96.90
17715;DHT22;8977;50.902;4.314;2022-08-03T11:58:14;29.40;97.00
17715;DHT22;8977;50.902;4.314;2022-08-03T12:00:41;29.50;96.50
17715;DHT22;8977;50.902;4.314;2022-08-03T12:03:10;29.50;96.60
17715;DHT22;8977;50.902;4.314;2022-08-03T12:05:41;29.50;96.10
17715;DHT22;8977;50.902;4.314;2022-08-03T12:08:09;29.60;95.90
17715;DHT22;8977;50.902;4.314;2022-08-03T12:10:37;29.80;95.40
17715;DHT22;8977;50.902;4.314;2022-08-03T12:13:05;29.80;95.70
17715;DHT22;8977;50.902;4.314;2022-08-03T12:15:35;29.80;95.50
17715;DHT22;8977;50.902;4.314;2022-08-03T12:18:11;29.80;95.80
17715;DHT22;8977;50.902;4.314;2022-08-03T12:20:38;29.90;95.80
17715;DHT22;8977;50.902;4.314;2022-08-03T12:23:06;30.00;95.50
17715;DHT22;8977;50.902;4.314;2022-08-03T12:25:35;30.00;95.80
17715;DHT22;8977;50.902;4.314;2022-08-03T12:28:08;30.10;95.90
17715;DHT22;8977;50.902;4.314;2022-08-03T12:30:37;30.10;95.30
17715;DHT22;8977;50.902;4.314;2022-08-03T12:33:12;30.20;95.30
17715;DHT22;8977;50.902;4.314;2022-08-03T12:35:39;30.20;95.10
17715;DHT22;8977;50.902;4.314;2022-08-03T12:38:06;30.20;95.00
17715;DHT22;8977;50.902;4.314;2022-08-03T12:40:33;30.30;94.90
17715;DHT22;8977;50.902;4.314;2022-08-03T12:43:00;30.40;94.70
17715;DHT22;8977;50.902;4.314;2022-08-03T12:45:28;30.40;94.60
17715;DHT22;8977;50.902;4.314;2022-08-03T12:47:58;30.40;94.70
17715;DHT22;8977;50.902;4.314;2022-08-03T12:50:27;30.40;94.60
17715;DHT22;8977;50.902;4.314;2022-08-03T12:52:55;30.40;94.50
17715;DHT22;8977;50.902;4.314;2022-08-03T12:55:23;30.40;94.80
17715;DHT22;8977;50.902;4.314;2022-08-03T12:57:52;30.40;95.00
17715;DHT22;8977;50.902;4.314;2022-08-03T13:00:19;30.40;94.80
17715;DHT22;8977;50.902;4.314;2022-08-03T13:02:59;30.50;94.10
17715;DHT22;8977;50.902;4.314;2022-08-03T13:05:27;30.40;94.30
17715;DHT22;8977;50.902;4.314;2022-08-03T13:07:54;30.40;94.30
17715;DHT22;8977;50.902;4.314;2022-08-03T13:10:28;30.40;95.00
17715;DHT22;8977;50.902;4.314;2022-08-03T13:12:56;30.40;94.50
17715;DHT22;8977;50.902;4.314;2022-08-03T13:15:25;30.40;94.10
17715;DHT22;8977;50.902;4.314;2022-08-03T13:17:54;30.30;94.20
17715;DHT22;8977;50.902;4.314;2022-08-03T13:20:23;30.40;94.00
17715;DHT22;8977;50.902;4.314;2022-08-03T13:22:50;30.40;94.40
17715;DHT22;8977;50.902;4.314;2022-08-03T13:25:17;30.40;94.10
17715;DHT22;8977;50.902;4.314;2022-08-03T13:27:45;30.40;94.20
17715;DHT22;8977;50.902;4.314;2022-08-03T13:30:12;30.50;94.10
17715;DHT22;8977;50.902;4.314;2022-08-03T13:32:40;30.50;93.80
17715;DHT22;8977;50.902;4.314;2022-08-03T13:35:07;30.40;93.70
17715;DHT22;8977;50.902;4.314;2022-08-03T13:37:36;30.50;93.60
17715;DHT22;8977;50.902;4.314;2022-08-03T13:40:05;30.60;93.80
17715;DHT22;8977;50.902;4.314;2022-08-03T13:42:33;30.70;93.70
17715;DHT22;8977;50.902;4.314;2022-08-03T13:45:01;30.80;94.20
17715;DHT22;8977;50.902;4.314;2022-08-03T13:47:28;30.90;93.60
17715;DHT22;8977;50.902;4.314;2022-08-03T13:49:55;31.10;93.60
17715;DHT22;8977;50.902;4.314;2022-08-03T13:52:22;31.10;93.60
17715;DHT22;8977;50.902;4.314;2022-08-03T13:54:50;31.20;93.50
17715;DHT22;8977;50.902;4.314;2022-08-03T13:57:17;31.30;93.40
17715;DHT22;8977;50.902;4.314;2022-08-03T13:59:44;31.30;93.70
17715;DHT22;8977;50.902;4.314;2022-08-03T14:02:10;31.30;93.30
17715;DHT22;8977;50.902;4.314;2022-08-03T14:04:37;31.50;92.90
17715;DHT22;8977;50.902;4.314;2022-08-03T14:07:04;31.50;92.80
17715;DHT22;8977;50.902;4.314;2022-08-03T14:09:31;31.50;92.60
17715;DHT22;8977;50.902;4.314;2022-08-03T14:12:01;31.50;92.40
17715;DHT22;8977;50.902;4.314;2022-08-03T14:14:28;31.50;92.60
17715;DHT22;8977;50.902;4.314;2022-08-03T14:16:55;31.50;92.80
17715;DHT22;8977;50.902;4.314;2022-08-03T14:19:21;31.50;92.50
17715;DHT22;8977;50.902;4.314;2022-08-03T14:21:48;31.50;92.10
17715;DHT22;8977;50.902;4.314;2022-08-03T14:24:15;31.50;92.40
17715;DHT22;8977;50.902;4.314;2022-08-03T14:26:42;31.40;92.30
17715;DHT22;8977;50.902;4.314;2022-08-03T14:29:10;31.40;92.30
17715;DHT22;8977;50.902;4.314;2022-08-03T14:31:37;31.40;92.30
17715;DHT22;8977;50.902;4.314;2022-08-03T14:34:04;31.30;92.70
17715;DHT22;8977;50.902;4.314;2022-08-03T14:36:31;31.20;92.50
17715;DHT22;8977;50.902;4.314;2022-08-03T14:38:58;31.10;92.90
17715;DHT22;8977;50.902;4.314;2022-08-03T14:41:25;31.10;92.70
17715;DHT22;8977;50.902;4.314;2022-08-03T14:43:51;31.10;92.70
17715;DHT22;8977;50.902;4.314;2022-08-03T14:46:21;31.10;92.70
17715;DHT22;8977;50.902;4.314;2022-08-03T14:48:47;31.10;92.60
17715;DHT22;8977;50.902;4.314;2022-08-03T14:51:14;31.20;92.30
17715;DHT22;8977;50.902;4.314;2022-08-03T14:53:41;31.20;92.30
17715;DHT22;8977;50.902;4.314;2022-08-03T14:56:08;31.20;92.60
17715;DHT22;8977;50.902;4.314;2022-08-03T14:58:35;31.20;92.40
17715;DHT22;8977;50.902;4.314;2022-08-03T15:01:02;31.30;92.40
17715;DHT22;8977;50.902;4.314;2022-08-03T15:03:30;31.40;92.70
17715;DHT22;8977;50.902;4.314;2022-08-03T15:05:57;31.40;92.40
17715;DHT22;8977;50.902;4.314;2022-08-03T15:08:24;31.50;92.30
17715;DHT22;8977;50.902;4.314;2022-08-03T15:10:52;31.50;92.50
17715;DHT22;8977;50.902;4.314;2022-08-03T15:13:19;31.50;92.30
17715;DHT22;8977;50.902;4.314;2022-08-03T15:15:46;31.70;91.80
17715;DHT22;8977;50.902;4.314;2022-08-03T15:18:14;31.70;92.20
17715;DHT22;8977;50.902;4.314;2022-08-03T15:20:42;31.70;92.20
17715;DHT22;8977;50.902;4.314;2022-08-03T15:23:09;31.70;92.20
17715;DHT22;8977;50.902;4.314;2022-08-03T15:25:36;31.80;92.00
17715;DHT22;8977;50.902;4.314;2022-08-03T15:28:03;31.80;92.20
17715;DHT22;8977;50.902;4.314;2022-08-03T15:30:30;32.00;91.60
17715;DHT22;8977;50.902;4.314;2022-08-03T15:33:00;32.00;91.60
17715;DHT22;8977;50.902;4.314;2022-08-03T15:35:27;32.10;91.20
17715;DHT22;8977;50.902;4.314;2022-08-03T15:37:55;32.20;91.10
17715;DHT22;8977;50.902;4.314;2022-08-03T15:40:22;32.20;91.40
17715;DHT22;8977;50.902;4.314;2022-08-03T15:42:49;32.20;91.40
17715;DHT22;8977;50.902;4.314;2022-08-03T15:45:16;32.30;91.50
17715;DHT22;8977;50.902;4.314;2022-08-03T15:47:43;32.40;91.30
17715;DHT22;8977;50.902;4.314;2022-08-03T15:50:10;32.40;91.70
17715;DHT22;8977;50.902;4.314;2022-08-03T15:52:37;32.40;91.30
17715;DHT22;8977;50.902;4.314;2022-08-03T15:55:06;32.50;91.20
17715;DHT22;8977;50.902;4.314;2022-08-03T15:57:33;32.50;91.50